Time;durP1;ratioP1;P1;durP2;ratioP2;P2;SDS_P1;SDS_P2;PMS_P1;PMS_P2;Temp;Humidity;BMP_temperature;BMP_pressure;BME280_temperature;BME280_humidity;BME280_pressure;Samples;Min_cycle;Max_cycle;Signal;HPM_P1;HPM_P2
2023/10/25 01:53:54;;;;;;;;;;;;;;;;;;;;;
2023/10/25 03:08:37;;;;;;;5.03;4.57;;;;;;;12.53;100.00;94807.19;5853531;24;20192;-89
2023/10/25 03:37:55;;;;;;;1.60;1.50;;;;;;;12.52;98.45;94782.38;6015128;23;20208;-90
2023/10/25 03:51:21;;;;;;;2.07;1.40;;;;;;;12.36;99.15;94783.66;5917316;24;20179;-90
2023/10/25 03:54:06;;;;;;;2.27;1.50;;;;;;;12.33;99.00;94778.91;6053970;23;20177;-90
2023/10/25 03:56:52;;;;;;;1.70;1.60;;;;;;;12.38;99.43;94786.81;6061441;23;20232;-90
2023/10/25 03:59:20;;;;;;;3.27;1.60;;;;;;;12.39;99.26;94780.66;6181659;23;20174;-92
2023/10/25 04:02:08;;;;;;;1.60;1.50;;;;;;;12.37;98.85;94777.50;6182220;23;20236;-89
2023/10/25 04:05:17;;;;;;;1.90;1.60;;;;;;;12.31;98.51;94768.81;6180020;23;20348;-90
2023/10/25 04:12:12;;;;;;;;;;;;;;;;;;;;;
2023/10/25 04:18:52;;;;;;;1.50;1.40;;;;;;;12.23;98.71;94774.22;5982902;23;20200;-92
2023/10/25 04:21:29;;;;;;;1.83;1.60;;;;;;;12.22;99.01;94777.00;6005926;23;20246;-90
2023/10/25 04:24:12;;;;;;;3.90;1.50;;;;;;;12.24;99.27;94775.00;6005133;23;20770;-90
2023/10/25 04:26:39;;;;;;;1.50;1.40;;;;;;;12.21;98.05;94758.13;6134733;22;20202;-87
2023/10/25 04:29:06;;;;;;;2.27;1.47;;;;;;;12.22;97.63;94751.19;6181116;23;20240;-90
2023/10/25 04:31:42;;;;;;;3.70;1.60;;;;;;;12.27;97.68;94751.38;6180802;23;20177;-88
2023/10/25 04:34:18;;;;;;;2.10;1.33;;;;;;;12.28;97.09;94738.25;6180906;23;20201;-88
2023/10/25 04:36:47;;;;;;;1.33;1.23;;;;;;;12.25;97.42;94728.34;6180244;23;20190;-89
2023/10/25 04:39:18;;;;;;;2.37;1.50;;;;;;;12.28;96.97;94725.34;6180570;23;20196;-89
2023/10/25 04:41:55;;;;;;;1.47;1.30;;;;;;;12.32;96.91;94718.75;6182372;23;20233;-89
2023/10/25 04:44:23;;;;;;;1.50;1.40;;;;;;;12.26;96.94;94723.97;6182256;23;20186;-90
2023/10/25 04:46:53;;;;;;;1.70;1.50;;;;;;;12.28;97.25;94729.72;6181592;23;20268;-89
2023/10/25 04:49:21;;;;;;;1.50;1.40;;;;;;;12.25;96.97;94723.19;6181315;23;20794;-88
2023/10/25 04:51:51;;;;;;;1.97;1.70;;;;;;;12.22;97.43;94735.69;6180704;23;20249;-89
2023/10/25 04:54:19;;;;;;;1.50;1.40;;;;;;;12.18;98.39;94740.47;6181948;23;20225;-89
2023/10/25 04:56:57;;;;;;;2.13;1.50;;;;;;;12.18;98.62;94739.69;6178108;23;20191;-89
2023/10/25 05:05:45;;;;;;;;;;;;;;;;;;;;;
2023/10/25 05:08:51;;;;;;;2.30;1.80;;;;;;;12.25;96.90;94709.47;6179737;23;20174;-88
2023/10/25 05:12:08;;;;;;;4.90;2.87;;;;;;;12.18;97.64;94719.03;6130574;23;20174;-88
2023/10/25 05:14:52;;;;;;;2.73;2.50;;;;;;;12.20;98.09;94733.31;6180468;23;20175;-89
2023/10/25 05:17:53;;;;;;;8.63;3.17;;;;;;;12.18;97.72;94721.63;6180355;23;20577;-89
2023/10/25 05:20:52;;;;;;;3.30;2.20;;;;;;;12.16;97.84;94723.63;6179711;23;20517;-89
2023/10/25 05:23:28;;;;;;;3.87;2.57;;;;;;;12.15;97.94;94725.41;6180064;23;20190;-90
2023/10/25 05:26:30;;;;;;;2.10;1.83;;;;;;;12.15;97.30;94720.25;6180418;23;20273;-90
2023/10/25 05:29:17;;;;;;;20.23;18.03;;;;;;;12.13;97.11;94716.28;6179807;23;20239;-89
2023/10/25 05:35:08;;;;;;;6.50;5.80;;;;;;;12.04;100.00;94754.44;6164964;23;20221;-89
2023/10/25 05:38:10;;;;;;;3.80;2.83;;;;;;;12.07;99.73;94729.03;6181260;23;20155;-88
2023/10/25 05:40:38;;;;;;;19.07;17.07;;;;;;;12.00;100.00;94725.69;6180607;23;20225;-89
2023/10/25 05:43:27;;;;;;;9.87;8.87;;;;;;;11.99;100.00;94734.41;6180238;23;20224;-89
2023/10/25 05:49:16;;;;;;;3.37;3.07;;;;;;;12.13;98.52;94716.28;6176220;23;20676;-88
2023/10/25 05:51:51;;;;;;;2.23;2.03;;;;;;;12.04;99.07;94718.34;6180140;23;20182;-89
2023/10/25 05:54:38;;;;;;;3.57;2.60;;;;;;;12.09;98.93;94713.34;6181085;23;20602;-89
2023/10/25 05:57:15;;;;;;;3.97;3.17;;;;;;;12.14;98.30;94699.81;6179187;23;20260;-88
2023/10/25 05:59:57;;;;;;;7.27;6.03;;;;;;;12.05;98.70;94707.81;6180419;23;20230;-90
2023/10/25 06:02:35;;;;;;;4.10;3.70;;;;;;;12.08;98.25;94702.25;6180601;23;20568;-89
2023/10/25 06:05:15;;;;;;;3.07;2.80;;;;;;;12.01;98.19;94703.25;6180959;23;20159;-88
2023/10/25 06:07:50;;;;;;;4.77;4.30;;;;;;;11.99;99.01;94707.81;6180409;23;20170;-88
2023/10/25 06:10:35;;;;;;;3.00;2.80;;;;;;;12.01;98.26;94701.47;6180199;23;20545;-89
2023/10/25 06:13:33;;;;;;;3.33;3.03;;;;;;;12.04;98.02;94697.69;6180299;23;20175;-89
2023/10/25 06:16:40;;;;;;;3.20;2.90;;;;;;;12.07;97.51;94686.97;6154371;23;20194;-89
2023/10/25 06:19:10;;;;;;;3.37;3.00;;;;;;;12.01;97.92;94687.78;6053289;23;20239;-88
2023/10/25 06:22:03;;;;;;;2.70;2.50;;;;;;;12.16;97.69;94690.84;6183692;23;20174;-88
2023/10/25 06:24:48;;;;;;;2.77;2.53;;;;;;;12.51;95.77;94669.81;6181906;23;20185;-89
2023/10/25 06:27:20;;;;;;;3.00;2.70;;;;;;;12.57;93.59;94630.22;6181638;23;20206;-88
2023/10/25 06:29:48;;;;;;;4.23;2.40;;;;;;;12.47;93.63;94622.16;6180932;23;20655;-89
2023/10/25 06:32:33;;;;;;;3.20;2.83;;;;;;;12.36;94.11;94636.53;6181492;23;20170;-89
2023/10/25 06:35:20;;;;;;;2.57;2.37;;;;;;;12.24;95.55;94641.59;6181050;23;20170;-90
2023/10/25 06:37:59;;;;;;;3.07;2.83;;;;;;;12.24;97.37;94676.94;6181776;23;20197;-88
2023/10/25 06:43:13;;;;;;;4.27;2.87;;;;;;;12.40;96.28;94674.63;6179769;23;20272;-89
2023/10/25 06:45:56;;;;;;;3.83;2.87;;;;;;;12.43;95.97;94660.50;6181108;23;20200;-89
2023/10/25 06:48:42;;;;;;;3.50;3.20;;;;;;;12.48;95.82;94670.22;6181637;23;20166;-90
2023/10/25 06:51:29;;;;;;;3.20;2.90;;;;;;;12.79;95.85;94676.09;6181922;23;20157;-88
2023/10/25 06:54:18;;;;;;;3.20;2.90;;;;;;;13.26;92.59;94637.72;6181319;23;20528;-89
2023/10/25 07:00:20;;;;;;;14.23;11.77;;;;;;;14.30;86.41;94530.38;6170696;23;20185;-90
2023/10/25 07:03:17;;;;;;;4.27;3.87;;;;;;;14.55;82.55;94449.09;6180909;23;20202;-89
2023/10/25 07:05:58;;;;;;;3.43;3.13;;;;;;;14.58;81.73;94417.56;6180637;23;20768;-89
2023/10/25 07:08:35;;;;;;;3.20;2.90;;;;;;;14.33;82.32;94423.75;6181329;23;20162;-89
2023/10/25 07:11:14;;;;;;;3.40;3.10;;;;;;;14.90;81.32;94413.50;6180911;23;20177;-88
2023/10/25 07:13:49;;;;;;;3.25;3.03;;;;;;;15.51;79.36;94378.22;6181114;23;20162;-88
2023/10/25 07:16:20;;;;;;;3.53;3.17;;;;;;;15.85;75.75;94286.34;6180832;23;20213;-89
2023/10/25 07:19:03;;;;;;;4.13;3.30;;;;;;;16.07;74.31;94244.03;6181010;23;20166;-90
2023/10/25 07:21:32;;;;;;;4.05;3.20;;;;;;;16.23;74.06;94238.75;6181819;23;20157;-89
2023/10/25 07:24:13;;;;;;;4.30;3.33;;;;;;;16.49;72.94;94219.03;6180971;23;20717;-89
2023/10/25 07:26:51;;;;;;;3.97;3.60;;;;;;;16.69;71.16;94163.88;6180308;23;20569;-90
2023/10/25 07:29:25;;;;;;;3.78;2.90;;;;;;;16.91;69.92;94124.75;6181309;23;20182;-90
2023/10/25 07:34:57;;;;;;;3.97;2.83;;;;;;;17.14;68.04;94058.56;6174740;23;20650;-89
2023/10/25 07:41:00;;;;;;;3.28;2.95;;;;;;;17.55;66.75;94023.03;6180129;23;20177;-89
2023/10/25 07:43:59;;;;;;;2.53;2.33;;;;;;;17.70;65.21;93965.84;6180507;23;20194;-89
2023/10/25 07:46:31;;;;;;;2.47;2.28;;;;;;;17.83;65.50;93978.34;6180220;23;20201;-89
2023/10/25 07:49:25;;;;;;;3.55;3.25;;;;;;;17.95;64.55;93937.19;6180756;23;20269;-89
2023/10/25 07:51:54;;;;;;;3.22;2.92;;;;;;;17.94;64.95;93937.44;6181016;23;20278;-89
2023/10/25 07:54:22;;;;;;;3.33;2.95;;;;;;;17.84;62.92;93877.59;6181486;23;20182;-89
2023/10/25 07:56:57;;;;;;;2.25;2.10;;;;;;;17.92;64.04;93901.25;6180354;23;20692;-88
2023/10/25 07:59:44;;;;;;;;;;;;;;;;;;;;;
2023/10/25 08:02:11;;;;;;;2.22;2.03;;;;;;;16.86;66.49;93985.13;6181321;23;20253;-89
2023/10/25 08:04:53;;;;;;;3.97;2.03;;;;;;;16.81;66.83;94018.13;6180942;23;20190;-88
2023/10/25 08:07:47;;;;;;;;;;;;;;;;;;;;;
2023/10/25 08:10:22;;;;;;;2.85;2.50;;;;;;;17.52;66.49;94023.53;6180977;23;20810;-88
2023/10/25 08:13:04;;;;;;;3.08;2.50;;;;;;;17.91;64.82;93969.97;6180714;23;20208;-89
2023/10/25 08:15:46;;;;;;;2.67;2.47;;;;;;;18.14;63.67;93918.41;6180442;23;20642;-88
2023/10/25 08:18:18;;;;;;;2.20;2.00;;;;;;;17.94;62.81;93859.31;6180289;23;20193;-89
2023/10/25 08:20:44;;;;;;;2.28;2.15;;;;;;;17.89;63.45;93880.97;6180317;23;20182;-87
2023/10/25 08:23:14;;;;;;;2.40;2.20;;;;;;;17.64;63.34;93865.38;6179614;23;20665;-88
2023/10/25 08:25:44;;;;;;;2.88;2.67;;;;;;;17.65;64.56;93939.03;6181105;23;20273;-88
2023/10/25 08:28:21;;;;;;;3.35;2.25;;;;;;;17.62;64.51;93924.69;6181081;23;20248;-88
2023/10/25 08:30:57;;;;;;;2.25;2.05;;;;;;;17.79;65.96;93985.09;6179698;23;20190;-89
2023/10/25 08:33:31;;;;;;;4.82;4.35;;;;;;;17.87;64.24;93937.72;6181105;23;20166;-89
2023/10/25 08:36:09;;;;;;;1.65;1.55;;;;;;;17.97;63.68;93897.06;6179949;23;20193;-88
2023/10/25 08:38:47;;;;;;;1.58;1.48;;;;;;;17.87;63.78;93897.88;6179902;23;20178;-90
2023/10/25 08:41:26;;;;;;;1.88;1.77;;;;;;;17.74;65.75;93963.47;6180648;23;20155;-89
2023/10/25 08:44:05;;;;;;;1.85;1.42;;;;;;;17.70;64.86;93939.81;6180528;23;20197;-88
2023/10/25 08:46:44;;;;;;;1.52;1.42;;;;;;;17.57;65.97;93974.91;6179937;23;20194;-87
2023/10/25 08:49:16;;;;;;;1.42;1.33;;;;;;;17.67;65.52;93968.19;6180141;23;20241;-88
2023/10/25 08:52:05;;;;;;;1.52;1.33;;;;;;;17.91;64.24;93922.34;6180460;23;20688;-88
2023/10/25 08:54:40;;;;;;;2.28;1.38;;;;;;;18.03;63.82;93890.81;6170084;23;20166;-88
2023/10/25 08:57:19;;;;;;;1.40;1.30;;;;;;;18.19;63.83;93900.16;6179766;23;20194;-88
2023/10/25 08:59:47;;;;;;;1.20;1.08;;;;;;;18.09;63.33;93872.31;6180569;23;20170;-88
2023/10/25 09:02:41;;;;;;;1.35;1.25;;;;;;;18.14;63.74;93879.31;6180846;23;20178;-89
2023/10/25 09:05:15;;;;;;;3.00;1.30;;;;;;;17.98;63.19;93844.72;6180289;23;20637;-88
2023/10/25 09:07:59;;;;;;;2.33;1.00;;;;;;;17.74;63.06;93836.72;6180541;23;20508;-89
2023/10/25 09:10:35;;;;;;;1.10;1.00;;;;;;;17.66;63.60;93857.31;6179543;23;20165;-89
2023/10/25 09:13:02;;;;;;;1.50;1.00;;;;;;;17.74;63.85;93867.94;6179975;23;20201;-89
2023/10/25 09:15:41;;;;;;;1.00;0.90;;;;;;;17.68;64.12;93868.22;6180582;23;20190;-88
2023/10/25 09:18:19;;;;;;;1.52;1.00;;;;;;;17.50;64.90;93903.34;6180467;23;20170;-88
2023/10/25 09:20:57;;;;;;;1.08;1.08;;;;;;;17.40;65.88;93926.75;6180398;23;20496;-88
2023/10/25 09:23:44;;;;;;;1.10;1.00;;;;;;;17.42;65.23;93893.44;6179989;23;20744;-89
2023/10/25 09:26:34;;;;;;;1.98;1.30;;;;;;;17.16;66.04;93923.84;6179118;23;20198;-89
2023/10/25 09:29:22;;;;;;;2.20;1.05;;;;;;;17.19;65.60;93924.13;6180213;23;20555;-89
2023/10/25 09:35:08;;;;;;;0.65;0.63;;;;;;;17.25;63.76;93839.84;6177355;23;20185;-89
2023/10/25 09:37:53;;;;;;;0.55;0.55;;;;;;;17.46;64.06;93848.44;6180339;23;20186;-89
2023/10/25 09:40:37;;;;;;;;;;;;;;;;;;;;;
2023/10/25 09:43:18;;;;;;;0.93;0.85;;;;;;;17.79;63.84;93848.94;6179361;23;20275;-88
2023/10/25 09:46:07;;;;;;;0.70;0.70;;;;;;;17.76;62.73;93789.59;6179683;23;20277;-89
2023/10/25 09:52:01;;;;;;;0.60;0.60;;;;;;;17.96;62.55;93771.31;6179613;23;20263;-88
2023/10/25 09:54:58;;;;;;;0.63;0.63;;;;;;;17.59;60.96;93683.94;6180430;23;20206;-89
2023/10/25 09:57:32;;;;;;;0.60;0.60;;;;;;;17.46;63.60;93793.03;6179962;23;20178;-88
2023/10/25 10:03:35;;;;;;;0.63;0.63;;;;;;;17.55;62.35;93745.38;6186109;23;20178;-89
2023/10/25 10:06:26;;;;;;;0.63;0.63;;;;;;;17.72;63.58;93801.56;6179701;23;20201;-89
2023/10/25 10:09:10;;;;;;;0.60;0.60;;;;;;;17.75;62.38;93762.78;6181827;23;20180;-88
2023/10/25 10:12:01;;;;;;;1.58;0.73;;;;;;;17.88;62.35;93753.66;6180915;23;20673;-88
2023/10/25 10:14:42;;;;;;;1.65;0.60;;;;;;;17.93;62.82;93779.66;6175688;23;20521;-89
2023/10/25 10:17:21;;;;;;;1.08;0.50;;;;;;;17.99;62.61;93746.56;6181465;23;20592;-88
2023/10/25 10:20:03;;;;;;;1.60;1.50;;;;;;;17.88;62.54;93756.25;6181312;23;20513;-88
2023/10/25 10:26:30;;;;;;;;;;;;;;;;;;;;;
2023/10/25 10:28:56;;;;;;;1.38;0.90;;;;;;;17.52;62.66;93743.28;6075238;23;20186;-87
2023/10/25 10:31:28;;;;;;;0.80;0.80;;;;;;;17.61;64.74;93838.00;6187113;23;20163;-87
2023/10/25 10:33:56;;;;;;;0.60;0.60;;;;;;;17.83;64.29;93831.75;6188032;23;20159;-85
2023/10/25 10:36:24;;;;;;;1.38;0.80;;;;;;;17.94;64.17;93794.22;6184183;23;20189;-84
2023/10/25 10:39:16;;;;;;;0.60;0.60;;;;;;;18.09;62.16;93726.44;6184289;23;20207;-85
2023/10/25 10:41:50;;;;;;;0.60;0.60;;;;;;;18.07;62.71;93754.63;6183063;23;20171;-88
2023/10/25 10:47:49;;;;;;;0.50;0.50;;;;;;;17.94;61.64;93669.25;6175019;23;20229;-87
2023/10/25 10:50:31;;;;;;;0.50;0.50;;;;;;;17.79;62.40;93700.56;6181746;23;20182;-89
2023/10/25 10:53:09;;;;;;;1.35;0.50;;;;;;;17.63;61.56;93639.97;6184041;23;20763;-86
2023/10/25 11:02:07;;;;;;;;;;;;;;;;;;;;;
2023/10/25 11:04:39;;;;;;;0.50;0.50;;;;;;;17.58;64.37;93768.28;6180900;23;20213;-89
2023/10/25 11:07:09;;;;;;;0.60;0.60;;;;;;;17.71;62.84;93714.13;6180684;22;20205;-88
2023/10/25 11:09:36;;;;;;;0.80;0.52;;;;;;;17.79;63.33;93714.34;6181851;23;20167;-88
2023/10/25 11:12:26;;;;;;;0.40;0.40;;;;;;;17.66;62.15;93662.09;6182022;23;20625;-89
2023/10/25 11:18:47;;;;;;;1.65;0.60;;;;;;;17.42;60.77;93574.22;6105700;23;20266;-88
2023/10/25 11:27:52;;;;;;;0.60;0.60;;;;;;;17.55;61.05;93567.66;6144194;23;20191;-88
2023/10/25 11:37:25;;;;;;;0.55;0.55;;;;;;;17.71;59.93;93517.09;6144279;23;20222;-89
2023/10/25 11:40:42;;;;;;;;;;;;;;;;;;;;;
2023/10/25 11:43:57;;;;;;;;;;;;;;;;;;;;;
2023/10/25 11:50:37;;;;;;;1.52;0.65;;;;;;;17.67;60.87;93536.16;5921061;24;20239;-88
2023/10/25 11:53:29;;;;;;;0.70;0.52;;;;;;;17.64;60.86;93527.06;6044393;23;20185;-88
2023/10/25 11:56:21;;;;;;;0.55;0.55;;;;;;;17.65;60.17;93488.78;6151183;23;20711;-88
2023/10/25 11:59:44;;;;;;;1.25;0.40;;;;;;;17.81;60.31;93504.03;6151678;23;20167;-88
2023/10/25 12:10:34;;;;;;;0.60;0.57;;;;;;;17.78;60.82;93499.34;6182715;22;20198;-88
2023/10/25 12:13:13;;;;;;;1.42;0.50;;;;;;;17.71;59.35;93426.00;6184543;23;20177;-87
2023/10/25 12:16:04;;;;;;;1.10;0.80;;;;;;;17.68;60.26;93451.81;6184930;23;20190;-87
2023/10/25 12:18:45;;;;;;;0.68;0.68;;;;;;;17.71;60.44;93456.44;6182626;23;20253;-88
2023/10/25 12:21:26;;;;;;;;;;;;;;;;;;;;;
2023/10/25 12:24:20;;;;;;;0.70;0.70;;;;;;;17.58;60.15;93430.00;6179646;23;20170;-90
2023/10/25 12:27:11;;;;;;;0.70;0.70;;;;;;;17.58;60.61;93447.41;6170589;23;20691;-90
2023/10/25 12:33:30;;;;;;;0.77;0.77;;;;;;;17.32;57.21;93256.19;6061682;23;20733;-89
2023/10/25 12:36:14;;;;;;;0.90;0.80;;;;;;;17.36;58.38;93291.78;6173980;23;20193;-88
2023/10/25 12:39:03;;;;;;;0.52;0.52;;;;;;;17.32;58.13;93310.81;6180532;23;20672;-88
2023/10/25 12:41:49;;;;;;;0.85;0.60;;;;;;;17.41;58.15;93317.75;6181008;23;20170;-88
2023/10/25 12:44:19;;;;;;;1.70;0.70;;;;;;;17.48;58.28;93283.63;6181145;23;20240;-89
2023/10/25 12:46:46;;;;;;;0.60;0.60;;;;;;;17.45;59.31;93336.97;6180876;23;20225;-88
2023/10/25 12:49:27;;;;;;;1.48;0.60;;;;;;;17.53;59.17;93338.94;6181192;23;20546;-89
2023/10/25 12:51:58;;;;;;;0.88;0.70;;;;;;;17.51;59.63;93354.06;6177521;23;20201;-89
2023/10/25 12:54:30;;;;;;;0.85;0.68;;;;;;;17.71;57.61;93251.63;6180731;23;20229;-89
2023/10/25 12:56:58;;;;;;;0.85;0.60;;;;;;;17.76;56.05;93150.09;6180664;23;20265;-89
2023/10/25 12:59:37;;;;;;;0.40;0.40;;;;;;;17.95;55.47;93114.41;6180769;23;20677;-89
2023/10/25 13:02:13;;;;;;;1.52;0.45;;;;;;;18.34;55.21;93125.56;6180131;23;20177;-89
2023/10/25 13:05:07;;;;;;;1.40;0.60;;;;;;;18.60;55.20;93134.56;6180795;23;20262;-89
2023/10/25 13:08:09;;;;;;;1.52;0.70;;;;;;;18.90;55.60;93147.06;6179987;23;20174;-89
2023/10/25 13:13:51;;;;;;;0.63;0.63;;;;;;;19.48;54.56;93114.44;6177405;23;20178;-89
2023/10/25 13:16:54;;;;;;;0.80;0.60;;;;;;;19.67;53.86;93075.97;6180111;23;20286;-90
2023/10/25 13:22:25;;;;;;;0.55;0.55;;;;;;;19.69;51.41;92932.88;6180343;23;20768;-89
2023/10/25 13:28:24;;;;;;;0.60;0.60;;;;;;;19.14;52.02;92927.81;6134325;23;20182;-89
2023/10/25 13:31:35;;;;;;;0.60;0.60;;;;;;;19.08;53.73;93015.06;6179538;23;20170;-89
2023/10/25 13:37:15;;;;;;;0.57;0.57;;;;;;;19.29;52.82;92992.72;6180216;23;20196;-89
2023/10/25 13:43:39;;;;;;;1.00;0.70;;;;;;;19.56;53.88;93035.50;6174548;23;20273;-90
2023/10/25 13:49:06;;;;;;;0.40;0.40;;;;;;;19.77;53.61;93022.78;6180343;23;20229;-88
2023/10/25 13:51:53;;;;;;;1.85;0.60;;;;;;;19.75;52.97;92993.56;6180679;23;20220;-89
2023/10/25 13:54:35;;;;;;;0.60;0.60;;;;;;;19.90;53.50;93042.81;6180090;23;20257;-88
2023/10/25 13:57:05;;;;;;;0.55;0.55;;;;;;;19.86;54.18;93049.69;6180267;23;20515;-89
2023/10/25 13:59:41;;;;;;;1.02;0.52;;;;;;;19.80;54.77;93088.22;6179464;23;20653;-88
2023/10/25 14:02:18;;;;;;;0.50;0.50;;;;;;;19.86;54.25;93062.75;6179858;23;20603;-89
2023/10/25 14:04:45;;;;;;;1.80;0.80;;;;;;;19.85;54.02;93043.72;6178594;23;20202;-85
2023/10/25 14:07:12;;;;;;;0.50;0.50;;;;;;;19.90;54.44;93059.28;6179477;23;20193;-86
2023/10/25 14:10:00;;;;;;;1.00;0.68;;;;;;;19.59;55.51;93097.56;6179652;23;20178;-88
2023/10/25 14:12:50;;;;;;;0.80;0.70;;;;;;;19.38;56.29;93130.31;6180070;23;20205;-89
2023/10/25 14:15:43;;;;;;;;;;;;;;;;;;;;;
2023/10/25 14:18:18;;;;;;;2.35;1.27;;;;;;;19.28;56.59;93162.56;6179761;23;20529;-88
2023/10/25 14:20:47;;;;;;;1.00;0.90;;;;;;;19.05;57.38;93179.19;6179524;23;20170;-88
2023/10/25 14:23:26;;;;;;;0.82;0.80;;;;;;;18.86;58.18;93213.13;6179697;23;20337;-88
2023/10/25 14:25:59;;;;;;;0.70;0.70;;;;;;;18.81;58.18;93221.03;6179675;23;20197;-88
2023/10/25 14:28:30;;;;;;;2.40;0.70;;;;;;;18.95;58.70;93221.84;6180189;23;20151;-89
2023/10/25 14:30:56;;;;;;;4.60;0.90;;;;;;;19.19;57.91;93203.44;6179076;23;20483;-87
2023/10/25 14:33:32;;;;;;;0.73;0.73;;;;;;;18.96;57.10;93148.53;6179796;23;20177;-88
2023/10/25 14:36:08;;;;;;;0.77;0.70;;;;;;;18.81;57.84;93171.50;6181406;23;20193;-89
2023/10/25 14:41:42;;;;;;;0.75;0.70;;;;;;;18.77;58.54;93218.22;6185822;23;20174;-88
2023/10/25 14:44:17;;;;;;;1.13;0.70;;;;;;;18.54;59.27;93251.09;6184969;23;20174;-90
2023/10/25 14:46:45;;;;;;;0.77;0.63;;;;;;;18.50;58.94;93244.13;6181590;23;20234;-89
2023/10/25 14:49:17;;;;;;;0.90;0.90;;;;;;;18.38;59.92;93275.81;6181331;23;20177;-88
2023/10/25 14:51:47;;;;;;;0.80;0.80;;;;;;;18.35;60.10;93299.84;6181499;23;20221;-88
2023/10/25 14:54:15;;;;;;;0.80;0.80;;;;;;;18.28;60.80;93307.19;6181739;23;20166;-88
2023/10/25 14:56:56;;;;;;;1.83;0.88;;;;;;;18.21;61.07;93343.25;6181722;23;20245;-88
2023/10/25 14:59:48;;;;;;;0.93;0.80;;;;;;;18.14;60.82;93335.00;6181619;23;20201;-91
2023/10/25 15:02:32;;;;;;;0.88;0.73;;;;;;;18.07;61.00;93334.56;6181375;23;20174;-89
2023/10/25 15:05:14;;;;;;;1.35;0.93;;;;;;;17.99;61.75;93371.63;6181369;23;20603;-90
2023/10/25 15:07:50;;;;;;;1.95;1.00;;;;;;;17.98;62.18;93389.06;6182128;23;20166;-89
2023/10/25 15:13:16;;;;;;;0.75;0.75;;;;;;;18.01;62.23;93383.31;6176335;23;20253;-91
2023/10/25 15:15:43;;;;;;;1.67;0.82;;;;;;;17.99;62.11;93372.41;6181026;23;20201;-89
2023/10/25 15:18:36;;;;;;;0.70;0.70;;;;;;;17.91;62.54;93391.22;6181688;23;20537;-90
2023/10/25 15:21:22;;;;;;;3.33;1.02;;;;;;;17.80;62.59;93374.16;6176692;23;20229;-89
2023/10/25 15:24:22;;;;;;;1.00;0.75;;;;;;;17.77;63.13;93388.47;6181660;23;20166;-89
2023/10/25 15:27:27;;;;;;;3.40;1.17;;;;;;;17.81;63.63;93422.56;6137590;23;20206;-89
2023/10/25 15:30:09;;;;;;;1.90;1.00;;;;;;;17.83;63.76;93412.66;6180452;23;20245;-89
2023/10/25 15:36:01;;;;;;;2.20;1.20;;;;;;;17.81;64.43;93459.00;6165297;23;20224;-89
2023/10/25 15:41:52;;;;;;;1.20;1.10;;;;;;;17.72;65.22;93502.25;6139590;23;20173;-89
2023/10/25 15:44:54;;;;;;;3.22;1.00;;;;;;;17.72;65.04;93497.81;6181311;23;20174;-89
2023/10/25 15:47:43;;;;;;;20.27;18.13;;;;;;;17.68;65.32;93512.44;6181732;23;20277;-89
2023/10/25 15:50:30;;;;;;;18.83;16.83;;;;;;;17.66;65.82;93543.16;6181244;23;20170;-88
2023/10/25 15:53:05;;;;;;;12.88;5.10;;;;;;;17.65;66.22;93551.25;6180720;23;20185;-88
2023/10/25 15:56:24;;;;;;;3.55;3.10;;;;;;;17.59;66.34;93555.66;6181554;23;20666;-89
2023/10/25 15:59:01;;;;;;;;;;;;;;;;;;;;;
2023/10/25 16:01:35;;;;;;;4.78;1.83;;;;;;;17.50;67.32;93609.34;6186584;23;20210;-88
2023/10/25 16:04:28;;;;;;;5.70;2.10;;;;;;;17.47;68.13;93622.88;6186288;23;20233;-88
2023/10/25 16:07:20;;;;;;;2.05;1.50;;;;;;;17.38;70.11;93677.25;6187205;23;20257;-87
2023/10/25 16:23:17;;;;;;;2.28;1.08;;;;;;;17.05;66.26;93537.47;5932038;24;20555;-87
2023/10/25 17:09:05;;;;;;;;;;;;;;;;;;;;;
2023/10/25 17:33:36;;;;;;;9.25;8.35;;;;;;;16.12;71.68;93722.22;6032009;23;20650;-88
2023/10/25 17:36:59;;;;;;;;;;;;;;;;;;;;;
2023/10/25 18:00:20;;;;;;;1.70;1.60;;;;;;;15.81;76.08;93787.00;5863000;24;20182;-88
2023/10/25 18:16:48;;;;;;;1.92;1.73;;;;;;;15.78;80.24;93886.09;5890907;24;20201;-89
2023/10/25 19:09:51;;;;;;;2.58;2.13;;;;;;;14.95;82.40;93868.56;6016831;23;20219;-91
2023/10/25 19:12:50;;;;;;;2.00;1.55;;;;;;;14.76;84.24;93892.25;6164338;23;20170;-90
2023/10/25 19:15:51;;;;;;;2.85;2.10;;;;;;;14.75;84.83;93905.44;6148199;23;20189;-91
2023/10/25 19:18:53;;;;;;;2.20;1.67;;;;;;;14.74;84.59;93896.09;6183368;23;20612;-90
2023/10/25 19:21:33;;;;;;;1.73;1.50;;;;;;;14.78;83.69;93864.28;6183162;23;20257;-89
2023/10/25 19:24:41;;;;;;;1.90;1.70;;;;;;;14.80;83.47;93862.22;6183852;23;20174;-89
2023/10/25 20:25:44;;;;;;;0.80;0.80;;;;;;;14.91;77.01;93823.44;5907661;24;20705;-91
2023/10/25 20:28:24;;;;;;;1.08;0.80;;;;;;;14.94;77.05;93825.56;5977760;23;20549;-89
2023/10/25 23:32:22;;;;;;;0.50;0.50;;;;;;;13.78;79.35;93900.84;6170129;23;20258;-90
2023/10/25 23:51:28;;;;;;;0.47;0.47;;;;;;;13.82;74.01;93795.88;6064881;23;20870;-88
